sensor_id;sensor_type;location;lat;lon;timestamp;P1;P2;P0
34176;PMS7003;20450;49.074;9.158;2023-01-08T00:01:05;11.00;11.00;8.75
34176;PMS7003;20450;49.074;9.158;2023-01-08T00:03:36;14.75;14.75;11.75
34176;PMS7003;20450;49.074;9.158;2023-01-08T00:06:06;13.25;13.25;9.50
34176;PMS7003;20450;49.074;9.158;2023-01-08T00:08:36;15.75;15.75;12.00
34176;PMS7003;20450;49.074;9.158;2023-01-08T00:11:03;17.75;16.00;12.25
34176;PMS7003;20450;49.074;9.158;2023-01-08T00:13:31;12.25;12.25;10.25
34176;PMS7003;20450;49.074;9.158;2023-01-08T00:16:01;12.75;12.75;9.50
34176;PMS7003;20450;49.074;9.158;2023-01-08T00:18:30;13.00;12.50;10.50
34176;PMS7003;20450;49.074;9.158;2023-01-08T00:20:58;14.25;14.25;11.75
34176;PMS7003;20450;49.074;9.158;2023-01-08T00:23:26;12.75;12.75;10.75
34176;PMS7003;20450;49.074;9.158;2023-01-08T00:25:53;17.00;17.00;13.00
34176;PMS7003;20450;49.074;9.158;2023-01-08T00:28:20;16.50;16.50;11.75
34176;PMS7003;20450;49.074;9.158;2023-01-08T00:30:47;12.00;12.00;9.75
34176;PMS7003;20450;49.074;9.158;2023-01-08T00:33:14;13.25;12.00;10.00
34176;PMS7003;20450;49.074;9.158;2023-01-08T00:35:41;13.25;13.25;9.75
34176;PMS7003;20450;49.074;9.158;2023-01-08T00:38:10;13.00;13.00;10.00
34176;PMS7003;20450;49.074;9.158;2023-01-08T00:40:37;15.75;15.75;11.25
34176;PMS7003;20450;49.074;9.158;2023-01-08T00:43:04;16.50;16.50;12.00
34176;PMS7003;20450;49.074;9.158;2023-01-08T00:45:32;18.50;16.75;12.75
34176;PMS7003;20450;49.074;9.158;2023-01-08T00:48:00;15.25;12.50;9.25
34176;PMS7003;20450;49.074;9.158;2023-01-08T00:50:27;12.00;12.00;10.25
34176;PMS7003;20450;49.074;9.158;2023-01-08T00:52:54;10.75;10.00;7.25
34176;PMS7003;20450;49.074;9.158;2023-01-08T00:55:22;13.75;11.50;9.25
34176;PMS7003;20450;49.074;9.158;2023-01-08T00:57:48;14.75;14.75;12.00
34176;PMS7003;20450;49.074;9.158;2023-01-08T01:00:15;15.25;13.75;10.75
34176;PMS7003;20450;49.074;9.158;2023-01-08T01:02:43;15.50;13.50;12.25
34176;PMS7003;20450;49.074;9.158;2023-01-08T01:05:11;18.75;17.75;15.75
34176;PMS7003;20450;49.074;9.158;2023-01-08T01:07:39;22.25;21.50;18.25
34176;PMS7003;20450;49.074;9.158;2023-01-08T01:10:07;35.50;30.50;25.50
34176;PMS7003;20450;49.074;9.158;2023-01-08T01:12:37;38.00;34.00;27.50
34176;PMS7003;20450;49.074;9.158;2023-01-08T01:15:05;23.00;20.25;17.00
34176;PMS7003;20450;49.074;9.158;2023-01-08T01:17:36;21.25;18.50;14.25
34176;PMS7003;20450;49.074;9.158;2023-01-08T01:20:05;16.25;15.00;10.75
34176;PMS7003;20450;49.074;9.158;2023-01-08T01:22:35;16.00;15.25;12.00
34176;PMS7003;20450;49.074;9.158;2023-01-08T01:25:03;12.75;12.25;10.75
34176;PMS7003;20450;49.074;9.158;2023-01-08T01:27:31;15.50;15.25;11.50
34176;PMS7003;20450;49.074;9.158;2023-01-08T01:30:00;14.00;13.25;11.00
34176;PMS7003;20450;49.074;9.158;2023-01-08T01:32:27;11.75;11.75;9.25
34176;PMS7003;20450;49.074;9.158;2023-01-08T01:34:55;10.00;10.00;8.75
34176;PMS7003;20450;49.074;9.158;2023-01-08T01:37:21;15.00;10.50;9.00
34176;PMS7003;20450;49.074;9.158;2023-01-08T01:39:48;8.00;8.00;6.50
34176;PMS7003;20450;49.074;9.158;2023-01-08T01:42:16;12.00;10.75;7.25
34176;PMS7003;20450;49.074;9.158;2023-01-08T01:44:46;10.75;10.25;7.50
34176;PMS7003;20450;49.074;9.158;2023-01-08T01:47:18;10.00;10.00;9.75
34176;PMS7003;20450;49.074;9.158;2023-01-08T01:49:52;10.75;10.75;9.25
34176;PMS7003;20450;49.074;9.158;2023-01-08T01:52:27;10.50;10.50;8.50
34176;PMS7003;20450;49.074;9.158;2023-01-08T01:55:00;11.75;11.00;8.00
34176;PMS7003;20450;49.074;9.158;2023-01-08T01:57:33;9.00;9.00;7.50
34176;PMS7003;20450;49.074;9.158;2023-01-08T02:00:00;13.25;13.25;9.25
34176;PMS7003;20450;49.074;9.158;2023-01-08T02:02:41;14.25;12.25;10.00
34176;PMS7003;20450;49.074;9.158;2023-01-08T02:05:09;12.50;12.50;9.25
34176;PMS7003;20450;49.074;9.158;2023-01-08T02:07:37;14.00;14.00;11.25
34176;PMS7003;20450;49.074;9.158;2023-01-08T02:10:18;13.00;13.00;8.50
34176;PMS7003;20450;49.074;9.158;2023-01-08T02:12:57;15.25;12.50;10.25
34176;PMS7003;20450;49.074;9.158;2023-01-08T02:15:35;14.75;12.25;8.75
34176;PMS7003;20450;49.074;9.158;2023-01-08T02:18:16;12.75;12.75;10.75
34176;PMS7003;20450;49.074;9.158;2023-01-08T02:20:52;11.50;11.50;8.50
34176;PMS7003;20450;49.074;9.158;2023-01-08T02:23:29;13.50;13.50;10.25
34176;PMS7003;20450;49.074;9.158;2023-01-08T02:26:11;11.00;11.00;10.00
34176;PMS7003;20450;49.074;9.158;2023-01-08T02:28:48;11.25;11.25;10.00
34176;PMS7003;20450;49.074;9.158;2023-01-08T02:31:24;11.50;7.25;6.50
34176;PMS7003;20450;49.074;9.158;2023-01-08T02:33:54;11.75;10.00;9.00
34176;PMS7003;20450;49.074;9.158;2023-01-08T02:36:24;10.75;10.75;9.50
34176;PMS7003;20450;49.074;9.158;2023-01-08T02:39:14;14.75;11.75;10.25
34176;PMS7003;20450;49.074;9.158;2023-01-08T02:42:08;11.75;10.75;9.00
34176;PMS7003;20450;49.074;9.158;2023-01-08T02:44:50;9.00;9.00;7.75
34176;PMS7003;20450;49.074;9.158;2023-01-08T02:47:28;9.00;9.00;8.00
34176;PMS7003;20450;49.074;9.158;2023-01-08T02:50:03;11.25;11.25;8.50
34176;PMS7003;20450;49.074;9.158;2023-01-08T02:52:43;12.00;12.00;9.75
34176;PMS7003;20450;49.074;9.158;2023-01-08T02:55:19;12.00;12.00;9.75
34176;PMS7003;20450;49.074;9.158;2023-01-08T02:57:51;5.75;4.75;3.00
34176;PMS7003;20450;49.074;9.158;2023-01-08T03:00:19;13.75;13.75;9.75
34176;PMS7003;20450;49.074;9.158;2023-01-08T03:02:48;13.25;11.50;8.75
34176;PMS7003;20450;49.074;9.158;2023-01-08T03:05:24;14.25;12.25;9.50
34176;PMS7003;20450;49.074;9.158;2023-01-08T03:07:54;14.75;14.75;11.25
34176;PMS7003;20450;49.074;9.158;2023-01-08T03:10:21;12.00;10.75;8.25
34176;PMS7003;20450;49.074;9.158;2023-01-08T03:12:56;7.75;7.75;6.25
34176;PMS7003;20450;49.074;9.158;2023-01-08T03:15:31;14.50;13.50;10.75
34176;PMS7003;20450;49.074;9.158;2023-01-08T03:18:08;16.00;16.00;13.25
34176;PMS7003;20450;49.074;9.158;2023-01-08T03:20:43;14.75;14.75;13.25
34176;PMS7003;20450;49.074;9.158;2023-01-08T03:23:14;14.25;14.25;11.50
34176;PMS7003;20450;49.074;9.158;2023-01-08T03:25:45;11.50;11.25;9.50
34176;PMS7003;20450;49.074;9.158;2023-01-08T03:28:16;9.75;9.75;8.00
34176;PMS7003;20450;49.074;9.158;2023-01-08T03:30:48;13.00;12.75;10.50
34176;PMS7003;20450;49.074;9.158;2023-01-08T03:33:18;10.00;10.00;7.75
34176;PMS7003;20450;49.074;9.158;2023-01-08T03:35:50;13.25;11.00;10.00
34176;PMS7003;20450;49.074;9.158;2023-01-08T03:38:23;12.50;11.50;9.75
34176;PMS7003;20450;49.074;9.158;2023-01-08T03:40:56;11.25;11.25;9.00
34176;PMS7003;20450;49.074;9.158;2023-01-08T03:43:31;12.00;10.50;9.50
34176;PMS7003;20450;49.074;9.158;2023-01-08T03:45:58;11.00;10.75;9.00
34176;PMS7003;20450;49.074;9.158;2023-01-08T03:48:33;11.50;10.50;9.00
34176;PMS7003;20450;49.074;9.158;2023-01-08T03:51:03;9.25;9.25;7.75
34176;PMS7003;20450;49.074;9.158;2023-01-08T03:53:34;12.25;12.25;10.50
34176;PMS7003;20450;49.074;9.158;2023-01-08T03:56:01;10.25;9.75;8.50
34176;PMS7003;20450;49.074;9.158;2023-01-08T03:58:28;12.75;12.75;11.25
34176;PMS7003;20450;49.074;9.158;2023-01-08T04:00:56;11.50;10.00;8.50
34176;PMS7003;20450;49.074;9.158;2023-01-08T04:03:24;10.75;10.75;9.00
34176;PMS7003;20450;49.074;9.158;2023-01-08T04:05:51;11.50;11.50;8.25
34176;PMS7003;20450;49.074;9.158;2023-01-08T04:08:18;9.50;9.50;7.75
34176;PMS7003;20450;49.074;9.158;2023-01-08T04:10:44;9.25;8.00;7.75
34176;PMS7003;20450;49.074;9.158;2023-01-08T04:13:12;9.00;9.00;7.25
34176;PMS7003;20450;49.074;9.158;2023-01-08T04:15:39;12.50;12.50;9.75
34176;PMS7003;20450;49.074;9.158;2023-01-08T04:18:07;11.00;11.00;8.00
34176;PMS7003;20450;49.074;9.158;2023-01-08T04:20:34;13.00;11.25;9.75
34176;PMS7003;20450;49.074;9.158;2023-01-08T04:23:00;14.25;11.75;8.75
34176;PMS7003;20450;49.074;9.158;2023-01-08T04:25:27;13.25;11.25;9.50
34176;PMS7003;20450;49.074;9.158;2023-01-08T04:27:54;11.75;11.75;10.00
34176;PMS7003;20450;49.074;9.158;2023-01-08T04:30:21;14.50;11.00;9.00
34176;PMS7003;20450;49.074;9.158;2023-01-08T04:32:48;12.25;12.25;10.50
34176;PMS7003;20450;49.074;9.158;2023-01-08T04:35:16;9.25;9.25;7.00
34176;PMS7003;20450;49.074;9.158;2023-01-08T04:37:43;11.25;11.25;9.00
34176;PMS7003;20450;49.074;9.158;2023-01-08T04:40:10;10.75;9.25;7.50
34176;PMS7003;20450;49.074;9.158;2023-01-08T04:42:37;8.75;8.75;7.00
34176;PMS7003;20450;49.074;9.158;2023-01-08T04:45:05;11.00;9.75;8.00
34176;PMS7003;20450;49.074;9.158;2023-01-08T04:47:33;11.50;10.75;7.50
34176;PMS7003;20450;49.074;9.158;2023-01-08T04:50:00;10.75;10.75;8.25
34176;PMS7003;20450;49.074;9.158;2023-01-08T04:52:29;11.25;10.50;8.75
34176;PMS7003;20450;49.074;9.158;2023-01-08T04:54:55;8.00;8.00;6.50
34176;PMS7003;20450;49.074;9.158;2023-01-08T04:57:22;12.25;12.25;9.25
34176;PMS7003;20450;49.074;9.158;2023-01-08T04:59:50;16.50;14.75;12.50
34176;PMS7003;20450;49.074;9.158;2023-01-08T05:02:17;11.75;11.25;9.25
34176;PMS7003;20450;49.074;9.158;2023-01-08T05:04:46;13.75;12.25;9.25
34176;PMS7003;20450;49.074;9.158;2023-01-08T05:07:13;11.25;10.00;8.75
34176;PMS7003;20450;49.074;9.158;2023-01-08T05:09:41;10.50;10.25;8.50
34176;PMS7003;20450;49.074;9.158;2023-01-08T05:12:08;12.00;9.75;8.00
34176;PMS7003;20450;49.074;9.158;2023-01-08T05:14:35;12.75;12.50;10.00
34176;PMS7003;20450;49.074;9.158;2023-01-08T05:17:02;15.00;15.00;13.00
34176;PMS7003;20450;49.074;9.158;2023-01-08T05:19:29;17.50;17.50;15.00
34176;PMS7003;20450;49.074;9.158;2023-01-08T05:21:56;14.25;13.50;9.75
34176;PMS7003;20450;49.074;9.158;2023-01-08T05:24:23;12.50;11.25;8.50
34176;PMS7003;20450;49.074;9.158;2023-01-08T05:26:51;12.00;10.50;7.75
34176;PMS7003;20450;49.074;9.158;2023-01-08T05:29:18;12.25;12.25;8.25
34176;PMS7003;20450;49.074;9.158;2023-01-08T05:31:45;14.00;12.00;10.00
34176;PMS7003;20450;49.074;9.158;2023-01-08T05:34:12;15.50;15.50;12.75
34176;PMS7003;20450;49.074;9.158;2023-01-08T05:36:39;10.75;10.75;10.00
34176;PMS7003;20450;49.074;9.158;2023-01-08T05:39:05;17.25;14.50;13.50
34176;PMS7003;20450;49.074;9.158;2023-01-08T05:41:32;17.00;14.00;12.50
34176;PMS7003;20450;49.074;9.158;2023-01-08T05:44:01;11.25;11.25;9.00
34176;PMS7003;20450;49.074;9.158;2023-01-08T05:46:28;18.25;17.25;13.75
34176;PMS7003;20450;49.074;9.158;2023-01-08T05:48:55;15.00;15.00;13.50
34176;PMS7003;20450;49.074;9.158;2023-01-08T05:51:23;13.50;13.50;10.25
34176;PMS7003;20450;49.074;9.158;2023-01-08T05:53:50;16.50;15.50;12.75
34176;PMS7003;20450;49.074;9.158;2023-01-08T05:56:17;14.00;13.00;11.00
34176;PMS7003;20450;49.074;9.158;2023-01-08T05:58:44;13.50;13.50;12.00
34176;PMS7003;20450;49.074;9.158;2023-01-08T06:01:13;14.25;13.00;12.00
34176;PMS7003;20450;49.074;9.158;2023-01-08T06:03:41;15.75;15.75;13.00
34176;PMS7003;20450;49.074;9.158;2023-01-08T06:06:09;14.00;13.50;11.75
34176;PMS7003;20450;49.074;9.158;2023-01-08T06:08:37;12.75;12.75;10.25
34176;PMS7003;20450;49.074;9.158;2023-01-08T06:11:05;10.25;8.50;7.25
34176;PMS7003;20450;49.074;9.158;2023-01-08T06:13:34;8.25;8.00;6.75
34176;PMS7003;20450;49.074;9.158;2023-01-08T06:16:02;8.00;8.00;7.00
34176;PMS7003;20450;49.074;9.158;2023-01-08T06:18:31;5.00;5.00;4.00
34176;PMS7003;20450;49.074;9.158;2023-01-08T06:20:58;7.25;7.25;6.25
34176;PMS7003;20450;49.074;9.158;2023-01-08T06:23:25;7.50;7.50;6.50
34176;PMS7003;20450;49.074;9.158;2023-01-08T06:25:51;9.00;9.00;6.75
34176;PMS7003;20450;49.074;9.158;2023-01-08T06:28:19;6.75;6.75;5.00
34176;PMS7003;20450;49.074;9.158;2023-01-08T06:30:47;7.75;7.75;6.75
34176;PMS7003;20450;49.074;9.158;2023-01-08T06:33:14;6.25;6.25;5.50
34176;PMS7003;20450;49.074;9.158;2023-01-08T06:35:43;3.75;3.75;2.75
34176;PMS7003;20450;49.074;9.158;2023-01-08T06:38:10;6.50;5.25;4.75
34176;PMS7003;20450;49.074;9.158;2023-01-08T06:40:37;5.50;5.00;4.50
34176;PMS7003;20450;49.074;9.158;2023-01-08T06:43:04;5.25;5.25;4.00
34176;PMS7003;20450;49.074;9.158;2023-01-08T06:45:31;4.00;3.50;2.50
34176;PMS7003;20450;49.074;9.158;2023-01-08T06:47:59;2.50;1.00;1.00
34176;PMS7003;20450;49.074;9.158;2023-01-08T06:50:26;3.50;3.50;3.25
34176;PMS7003;20450;49.074;9.158;2023-01-08T06:52:55;3.75;3.75;3.50
34176;PMS7003;20450;49.074;9.158;2023-01-08T06:55:22;5.00;5.00;5.00
34176;PMS7003;20450;49.074;9.158;2023-01-08T06:57:52;4.00;2.50;2.50
34176;PMS7003;20450;49.074;9.158;2023-01-08T07:00:20;5.25;5.25;5.25
34176;PMS7003;20450;49.074;9.158;2023-01-08T07:02:47;5.75;5.75;5.00
34176;PMS7003;20450;49.074;9.158;2023-01-08T07:05:15;6.75;5.75;5.50
34176;PMS7003;20450;49.074;9.158;2023-01-08T07:07:42;5.25;5.25;3.25
34176;PMS7003;20450;49.074;9.158;2023-01-08T07:10:11;4.25;4.25;3.50
34176;PMS7003;20450;49.074;9.158;2023-01-08T07:12:38;1.50;1.50;1.50
34176;PMS7003;20450;49.074;9.158;2023-01-08T07:15:05;3.25;2.25;1.25
34176;PMS7003;20450;49.074;9.158;2023-01-08T07:17:33;1.25;1.25;1.25
34176;PMS7003;20450;49.074;9.158;2023-01-08T07:20:00;2.00;2.00;2.00
34176;PMS7003;20450;49.074;9.158;2023-01-08T07:22:27;2.00;2.00;1.25
34176;PMS7003;20450;49.074;9.158;2023-01-08T07:24:54;2.25;2.25;2.00
34176;PMS7003;20450;49.074;9.158;2023-01-08T07:27:22;1.25;1.25;1.25
34176;PMS7003;20450;49.074;9.158;2023-01-08T07:29:49;2.25;2.00;1.75
34176;PMS7003;20450;49.074;9.158;2023-01-08T07:32:16;2.00;2.00;2.00
34176;PMS7003;20450;49.074;9.158;2023-01-08T07:34:43;4.50;3.75;3.50
34176;PMS7003;20450;49.074;9.158;2023-01-08T07:37:10;2.50;2.50;2.00
34176;PMS7003;20450;49.074;9.158;2023-01-08T07:39:37;2.00;2.00;2.00
34176;PMS7003;20450;49.074;9.158;2023-01-08T07:42:04;2.00;2.00;2.00
34176;PMS7003;20450;49.074;9.158;2023-01-08T07:44:33;2.50;2.50;2.00
34176;PMS7003;20450;49.074;9.158;2023-01-08T07:47:00;1.00;1.00;1.00
34176;PMS7003;20450;49.074;9.158;2023-01-08T07:49:27;1.50;1.50;1.25
34176;PMS7003;20450;49.074;9.158;2023-01-08T07:51:53;3.50;3.50;3.00
34176;PMS7003;20450;49.074;9.158;2023-01-08T07:54:20;2.25;2.25;2.00
34176;PMS7003;20450;49.074;9.158;2023-01-08T07:56:47;2.00;2.00;2.00
34176;PMS7003;20450;49.074;9.158;2023-01-08T07:59:14;3.00;3.00;3.00
34176;PMS7003;20450;49.074;9.158;2023-01-08T08:01:42;3.50;3.50;2.75
34176;PMS7003;20450;49.074;9.158;2023-01-08T08:04:09;3.25;2.00;2.00
34176;PMS7003;20450;49.074;9.158;2023-01-08T08:06:36;1.00;1.00;1.00
34176;PMS7003;20450;49.074;9.158;2023-01-08T08:09:03;3.00;3.00;2.75
34176;PMS7003;20450;49.074;9.158;2023-01-08T08:11:30;2.00;2.00;2.00
34176;PMS7003;20450;49.074;9.158;2023-01-08T08:13:57;1.00;1.00;1.00
34176;PMS7003;20450;49.074;9.158;2023-01-08T08:16:24;1.75;1.75;1.50
34176;PMS7003;20450;49.074;9.158;2023-01-08T08:18:52;1.25;1.25;1.00
34176;PMS7003;20450;49.074;9.158;2023-01-08T08:21:19;1.25;1.25;1.00
34176;PMS7003;20450;49.074;9.158;2023-01-08T08:23:46;3.00;1.75;1.00
34176;PMS7003;20450;49.074;9.158;2023-01-08T08:26:13;2.00;2.00;1.75
34176;PMS7003;20450;49.074;9.158;2023-01-08T08:28:40;1.00;1.00;1.00
34176;PMS7003;20450;49.074;9.158;2023-01-08T08:31:07;1.00;1.00;1.00
34176;PMS7003;20450;49.074;9.158;2023-01-08T08:33:34;1.25;1.25;1.00
34176;PMS7003;20450;49.074;9.158;2023-01-08T08:36:02;1.00;1.00;1.00
34176;PMS7003;20450;49.074;9.158;2023-01-08T08:38:29;1.00;1.00;1.00
34176;PMS7003;20450;49.074;9.158;2023-01-08T08:40:56;1.00;1.00;1.00
34176;PMS7003;20450;49.074;9.158;2023-01-08T08:43:23;1.75;1.75;1.00
34176;PMS7003;20450;49.074;9.158;2023-01-08T08:45:50;2.75;2.75;1.25
34176;PMS7003;20450;49.074;9.158;2023-01-08T08:48:17;0.00;0.00;0.00
34176;PMS7003;20450;49.074;9.158;2023-01-08T08:50:44;2.25;2.25;2.00
34176;PMS7003;20450;49.074;9.158;2023-01-08T08:53:12;2.00;2.00;2.00
34176;PMS7003;20450;49.074;9.158;2023-01-08T08:55:39;2.50;2.00;2.00
34176;PMS7003;20450;49.074;9.158;2023-01-08T08:58:07;1.00;1.00;0.75
34176;PMS7003;20450;49.074;9.158;2023-01-08T09:00:37;1.50;1.50;1.00
34176;PMS7003;20450;49.074;9.158;2023-01-08T09:03:05;0.00;0.00;0.00
34176;PMS7003;20450;49.074;9.158;2023-01-08T09:05:37;1.00;1.00;1.00
34176;PMS7003;20450;49.074;9.158;2023-01-08T09:08:05;1.00;1.00;1.00
34176;PMS7003;20450;49.074;9.158;2023-01-08T09:10:34;1.00;1.00;1.00
34176;PMS7003;20450;49.074;9.158;2023-01-08T09:13:02;0.50;0.50;0.50
34176;PMS7003;20450;49.074;9.158;2023-01-08T09:15:29;0.75;0.75;0.75
34176;PMS7003;20450;49.074;9.158;2023-01-08T09:17:56;2.00;2.00;2.00
34176;PMS7003;20450;49.074;9.158;2023-01-08T09:20:24;1.75;0.75;0.75
34176;PMS7003;20450;49.074;9.158;2023-01-08T09:22:52;1.00;1.00;1.00
34176;PMS7003;20450;49.074;9.158;2023-01-08T09:25:19;1.00;1.00;1.00
34176;PMS7003;20450;49.074;9.158;2023-01-08T09:27:48;1.00;1.00;1.00
34176;PMS7003;20450;49.074;9.158;2023-01-08T09:30:15;1.75;1.75;1.25
34176;PMS7003;20450;49.074;9.158;2023-01-08T09:32:42;1.00;1.00;1.00
34176;PMS7003;20450;49.074;9.158;2023-01-08T09:35:09;3.00;2.00;1.75
34176;PMS7003;20450;49.074;9.158;2023-01-08T09:37:36;1.25;1.25;1.25
34176;PMS7003;20450;49.074;9.158;2023-01-08T09:40:03;1.50;1.50;1.00
34176;PMS7003;20450;49.074;9.158;2023-01-08T09:42:31;1.00;1.00;1.00
34176;PMS7003;20450;49.074;9.158;2023-01-08T09:45:01;1.25;1.25;1.00
34176;PMS7003;20450;49.074;9.158;2023-01-08T09:47:31;2.00;2.00;2.00
34176;PMS7003;20450;49.074;9.158;2023-01-08T09:50:05;0.25;0.25;0.00
34176;PMS7003;20450;49.074;9.158;2023-01-08T09:52:38;1.00;1.00;0.00
34176;PMS7003;20450;49.074;9.158;2023-01-08T09:55:10;1.00;1.00;1.00
34176;PMS7003;20450;49.074;9.158;2023-01-08T09:57:39;2.50;2.50;2.50
34176;PMS7003;20450;49.074;9.158;2023-01-08T10:00:11;1.00;1.00;1.00
34176;PMS7003;20450;49.074;9.158;2023-01-08T10:02:41;0.00;0.00;0.00
34176;PMS7003;20450;49.074;9.158;2023-01-08T10:05:10;0.00;0.00;0.00
34176;PMS7003;20450;49.074;9.158;2023-01-08T10:07:40;2.25;2.25;1.50
34176;PMS7003;20450;49.074;9.158;2023-01-08T10:10:14;2.00;2.00;2.00
34176;PMS7003;20450;49.074;9.158;2023-01-08T10:12:45;2.00;2.00;2.00
34176;PMS7003;20450;49.074;9.158;2023-01-08T10:15:16;1.00;1.00;1.00
34176;PMS7003;20450;49.074;9.158;2023-01-08T10:17:46;4.50;2.75;2.75
34176;PMS7003;20450;49.074;9.158;2023-01-08T10:20:22;2.00;2.00;2.00
34176;PMS7003;20450;49.074;9.158;2023-01-08T10:22:51;1.00;1.00;0.75
34176;PMS7003;20450;49.074;9.158;2023-01-08T10:25:21;1.00;1.00;0.75
34176;PMS7003;20450;49.074;9.158;2023-01-08T10:27:51;1.00;1.00;1.00
34176;PMS7003;20450;49.074;9.158;2023-01-08T10:30:32;1.00;1.00;1.00
34176;PMS7003;20450;49.074;9.158;2023-01-08T10:33:03;2.00;2.00;2.00
34176;PMS7003;20450;49.074;9.158;2023-01-08T10:35:37;1.00;1.00;1.00
34176;PMS7003;20450;49.074;9.158;2023-01-08T10:38:20;0.00;0.00;0.00
34176;PMS7003;20450;49.074;9.158;2023-01-08T10:40:52;1.00;1.00;0.50
34176;PMS7003;20450;49.074;9.158;2023-01-08T10:43:22;1.00;0.00;0.00
34176;PMS7003;20450;49.074;9.158;2023-01-08T10:45:58;1.00;1.00;1.00
34176;PMS7003;20450;49.074;9.158;2023-01-08T10:48:31;2.00;2.00;2.00
34176;PMS7003;20450;49.074;9.158;2023-01-08T10:51:06;3.00;3.00;2.75
34176;PMS7003;20450;49.074;9.158;2023-01-08T10:53:51;2.00;2.00;1.75
34176;PMS7003;20450;49.074;9.158;2023-01-08T10:56:46;2.00;2.00;1.25
34176;PMS7003;20450;49.074;9.158;2023-01-08T10:59:34;2.00;2.00;2.00
34176;PMS7003;20450;49.074;9.158;2023-01-08T11:02:28;3.25;2.25;2.00
34176;PMS7003;20450;49.074;9.158;2023-01-08T11:05:11;2.00;2.00;2.00
34176;PMS7003;20450;49.074;9.158;2023-01-08T11:07:57;2.50;0.50;0.50
34176;PMS7003;20450;49.074;9.158;2023-01-08T11:10:42;6.00;6.00;4.75
34176;PMS7003;20450;49.074;9.158;2023-01-08T11:13:22;7.00;5.25;4.00
34176;PMS7003;20450;49.074;9.158;2023-01-08T11:16:01;5.75;5.75;4.75
34176;PMS7003;20450;49.074;9.158;2023-01-08T11:18:49;4.50;4.50;4.25
34176;PMS7003;20450;49.074;9.158;2023-01-08T11:21:28;3.25;3.25;3.00
34176;PMS7003;20450;49.074;9.158;2023-01-08T11:24:29;9.75;9.00;6.00
34176;PMS7003;20450;49.074;9.158;2023-01-08T11:27:22;10.50;8.75;7.25
34176;PMS7003;20450;49.074;9.158;2023-01-08T11:30:04;4.75;4.75;3.50
34176;PMS7003;20450;49.074;9.158;2023-01-08T11:32:53;5.25;5.25;4.25
34176;PMS7003;20450;49.074;9.158;2023-01-08T11:35:33;4.25;4.25;3.25
34176;PMS7003;20450;49.074;9.158;2023-01-08T11:38:25;3.00;3.00;3.00
34176;PMS7003;20450;49.074;9.158;2023-01-08T11:41:02;4.75;4.75;3.25
34176;PMS7003;20450;49.074;9.158;2023-01-08T11:44:10;4.00;4.00;3.00
34176;PMS7003;20450;49.074;9.158;2023-01-08T11:47:10;9.00;9.00;8.00
34176;PMS7003;20450;49.074;9.158;2023-01-08T11:50:15;7.25;7.00;6.25
34176;PMS7003;20450;49.074;9.158;2023-01-08T11:53:12;6.00;6.00;6.00
34176;PMS7003;20450;49.074;9.158;2023-01-08T11:56:04;2.75;2.00;2.00
34176;PMS7003;20450;49.074;9.158;2023-01-08T11:59:03;3.75;3.75;3.00
34176;PMS7003;20450;49.074;9.158;2023-01-08T12:01:59;2.50;2.00;1.25
34176;PMS7003;20450;49.074;9.158;2023-01-08T12:05:03;2.25;2.25;2.00
34176;PMS7003;20450;49.074;9.158;2023-01-08T12:08:15;2.00;2.00;2.00
34176;PMS7003;20450;49.074;9.158;2023-01-08T12:11:01;2.00;2.00;1.75
34176;PMS7003;20450;49.074;9.158;2023-01-08T12:13:49;1.50;1.50;1.00
34176;PMS7003;20450;49.074;9.158;2023-01-08T12:17:03;1.25;1.25;1.25
34176;PMS7003;20450;49.074;9.158;2023-01-08T12:20:19;1.00;1.00;1.00
34176;PMS7003;20450;49.074;9.158;2023-01-08T12:23:33;1.00;1.00;1.00
34176;PMS7003;20450;49.074;9.158;2023-01-08T12:26:29;4.00;3.00;2.75
34176;PMS7003;20450;49.074;9.158;2023-01-08T12:29:25;1.00;1.00;1.00
34176;PMS7003;20450;49.074;9.158;2023-01-08T12:32:35;2.00;2.00;1.25
34176;PMS7003;20450;49.074;9.158;2023-01-08T12:35:24;5.75;5.75;5.00
34176;PMS7003;20450;49.074;9.158;2023-01-08T12:38:15;5.25;5.25;4.00
34176;PMS7003;20450;49.074;9.158;2023-01-08T12:40:53;2.50;2.00;2.00
34176;PMS7003;20450;49.074;9.158;2023-01-08T12:43:27;0.00;0.00;0.00
34176;PMS7003;20450;49.074;9.158;2023-01-08T12:45:58;3.00;3.00;2.00
34176;PMS7003;20450;49.074;9.158;2023-01-08T12:48:29;2.75;2.75;2.00
34176;PMS7003;20450;49.074;9.158;2023-01-08T12:51:01;4.00;4.00;3.50
34176;PMS7003;20450;49.074;9.158;2023-01-08T12:53:38;2.50;2.50;2.25
34176;PMS7003;20450;49.074;9.158;2023-01-08T12:56:22;0.00;0.00;0.00
34176;PMS7003;20450;49.074;9.158;2023-01-08T13:02:13;0.50;0.50;0.00
34176;PMS7003;20450;49.074;9.158;2023-01-08T13:05:12;0.75;0.75;0.50
34176;PMS7003;20450;49.074;9.158;2023-01-08T13:07:56;1.00;1.00;1.00
34176;PMS7003;20450;49.074;9.158;2023-01-08T13:10:28;1.50;1.50;1.50
34176;PMS7003;20450;49.074;9.158;2023-01-08T13:13:03;2.25;2.25;1.75
34176;PMS7003;20450;49.074;9.158;2023-01-08T13:15:33;1.00;1.00;0.75
34176;PMS7003;20450;49.074;9.158;2023-01-08T13:18:04;0.50;0.50;0.50
34176;PMS7003;20450;49.074;9.158;2023-01-08T13:20:42;1.00;1.00;1.00
34176;PMS7003;20450;49.074;9.158;2023-01-08T13:23:23;1.00;1.00;1.00
34176;PMS7003;20450;49.074;9.158;2023-01-08T13:25:53;1.00;1.00;1.00
34176;PMS7003;20450;49.074;9.158;2023-01-08T13:28:28;1.50;1.50;1.00
34176;PMS7003;20450;49.074;9.158;2023-01-08T13:31:09;0.00;0.00;0.00
34176;PMS7003;20450;49.074;9.158;2023-01-08T13:33:51;0.00;0.00;0.00
34176;PMS7003;20450;49.074;9.158;2023-01-08T13:36:20;1.00;1.00;1.00
34176;PMS7003;20450;49.074;9.158;2023-01-08T13:39:04;0.50;0.50;0.50
34176;PMS7003;20450;49.074;9.158;2023-01-08T13:41:56;0.00;0.00;0.00
34176;PMS7003;20450;49.074;9.158;2023-01-08T13:44:30;2.00;2.00;1.75
34176;PMS7003;20450;49.074;9.158;2023-01-08T13:47:01;0.00;0.00;0.00
34176;PMS7003;20450;49.074;9.158;2023-01-08T13:49:33;0.67;0.67;0.00
34176;PMS7003;20450;49.074;9.158;2023-01-08T13:54:56;0.00;0.00;0.00
34176;PMS7003;20450;49.074;9.158;2023-01-08T13:57:29;1.00;1.00;1.00
34176;PMS7003;20450;49.074;9.158;2023-01-08T14:00:07;1.00;1.00;1.00
34176;PMS7003;20450;49.074;9.158;2023-01-08T14:02:44;1.00;1.00;1.00
34176;PMS7003;20450;49.074;9.158;2023-01-08T14:05:17;2.00;2.00;2.00
34176;PMS7003;20450;49.074;9.158;2023-01-08T14:07:49;1.75;1.75;1.25
34176;PMS7003;20450;49.074;9.158;2023-01-08T14:10:17;0.00;0.00;0.00
34176;PMS7003;20450;49.074;9.158;2023-01-08T14:12:45;1.00;1.00;0.00
34176;PMS7003;20450;49.074;9.158;2023-01-08T14:15:25;1.00;1.00;1.00
34176;PMS7003;20450;49.074;9.158;2023-01-08T14:17:55;0.50;0.50;0.25
34176;PMS7003;20450;49.074;9.158;2023-01-08T14:20:25;1.00;1.00;0.00
34176;PMS7003;20450;49.074;9.158;2023-01-08T14:22:58;2.00;0.00;0.00
34176;PMS7003;20450;49.074;9.158;2023-01-08T14:25:27;1.00;1.00;1.00
34176;PMS7003;20450;49.074;9.158;2023-01-08T14:27:58;0.00;0.00;0.00
34176;PMS7003;20450;49.074;9.158;2023-01-08T14:30:29;0.33;0.33;0.00
34176;PMS7003;20450;49.074;9.158;2023-01-08T14:32:57;1.33;1.33;1.00
34176;PMS7003;20450;49.074;9.158;2023-01-08T14:35:30;1.00;1.00;1.00
34176;PMS7003;20450;49.074;9.158;2023-01-08T14:38:00;0.00;0.00;0.00
34176;PMS7003;20450;49.074;9.158;2023-01-08T14:40:30;0.00;0.00;0.00
34176;PMS7003;20450;49.074;9.158;2023-01-08T14:43:02;1.00;0.00;0.00
34176;PMS7003;20450;49.074;9.158;2023-01-08T14:45:38;1.33;1.00;1.00
34176;PMS7003;20450;49.074;9.158;2023-01-08T14:48:15;3.75;3.75;3.00